sensor_id;sensor_type;location;lat;lon;timestamp;pressure;altitude;pressure_sealevel;temperature;humidity
79174;BME280;68599;49.142;9.124;2023-04-23T00:01:43;99056.27;;;13.36;71.86
79174;BME280;68599;49.142;9.124;2023-04-23T00:04:10;99051.09;;;13.29;72.66
79174;BME280;68599;49.142;9.124;2023-04-23T00:06:37;99056.46;;;13.30;72.77
79174;BME280;68599;49.142;9.124;2023-04-23T00:09:05;99054.42;;;13.27;72.63
79174;BME280;68599;49.142;9.124;2023-04-23T00:11:32;99057.95;;;13.29;72.72
79174;BME280;68599;49.142;9.124;2023-04-23T00:13:59;99056.27;;;13.30;72.88
79174;BME280;68599;49.142;9.124;2023-04-23T00:16:26;99062.92;;;13.31;72.73
79174;BME280;68599;49.142;9.124;2023-04-23T00:18:53;99063.25;;;13.28;72.50
79174;BME280;68599;49.142;9.124;2023-04-23T00:21:19;99066.52;;;13.28;72.42
79174;BME280;68599;49.142;9.124;2023-04-23T00:23:46;99070.32;;;13.27;72.49
79174;BME280;68599;49.142;9.124;2023-04-23T00:26:12;99072.68;;;13.22;72.68
79174;BME280;68599;49.142;9.124;2023-04-23T00:28:39;99070.83;;;13.19;72.75
79174;BME280;68599;49.142;9.124;2023-04-23T00:31:05;99074.52;;;13.21;72.68
79174;BME280;68599;49.142;9.124;2023-04-23T00:33:33;99072.64;;;13.18;72.68
79174;BME280;68599;49.142;9.124;2023-04-23T00:35:59;99075.96;;;13.16;72.75
79174;BME280;68599;49.142;9.124;2023-04-23T00:38:26;99080.20;;;13.19;72.75
79174;BME280;68599;49.142;9.124;2023-04-23T00:40:52;99081.11;;;13.19;72.88
79174;BME280;68599;49.142;9.124;2023-04-23T00:43:19;99085.27;;;13.14;73.28
79174;BME280;68599;49.142;9.124;2023-04-23T00:45:46;99085.87;;;13.02;73.68
79174;BME280;68599;49.142;9.124;2023-04-23T00:48:13;99089.14;;;12.96;74.06
79174;BME280;68599;49.142;9.124;2023-04-23T00:50:40;99085.92;;;12.85;75.09
79174;BME280;68599;49.142;9.124;2023-04-23T00:53:07;99091.05;;;12.89;75.31
79174;BME280;68599;49.142;9.124;2023-04-23T00:55:34;99092.23;;;12.80;76.27
79174;BME280;68599;49.142;9.124;2023-04-23T00:58:00;99090.95;;;12.75;76.25
79174;BME280;68599;49.142;9.124;2023-04-23T01:00:28;99096.64;;;12.78;76.36
79174;BME280;68599;49.142;9.124;2023-04-23T01:02:55;99093.53;;;12.69;77.48
79174;BME280;68599;49.142;9.124;2023-04-23T01:05:24;99098.96;;;12.69;76.91
79174;BME280;68599;49.142;9.124;2023-04-23T01:07:51;99099.62;;;12.65;77.47
79174;BME280;68599;49.142;9.124;2023-04-23T01:10:18;99100.59;;;12.64;77.25
79174;BME280;68599;49.142;9.124;2023-04-23T01:12:45;99102.04;;;12.58;77.91
79174;BME280;68599;49.142;9.124;2023-04-23T01:15:13;99099.19;;;12.52;78.72
79174;BME280;68599;49.142;9.124;2023-04-23T01:17:40;99104.59;;;12.47;78.92
79174;BME280;68599;49.142;9.124;2023-04-23T01:20:07;99102.67;;;12.45;79.53
79174;BME280;68599;49.142;9.124;2023-04-23T01:22:37;99107.11;;;12.36;79.76
79174;BME280;68599;49.142;9.124;2023-04-23T01:25:04;99110.02;;;12.35;79.32
79174;BME280;68599;49.142;9.124;2023-04-23T01:27:33;99108.92;;;12.36;79.81
79174;BME280;68599;49.142;9.124;2023-04-23T01:30:03;99107.54;;;12.40;79.33
79174;BME280;68599;49.142;9.124;2023-04-23T01:32:31;99105.52;;;12.41;79.59
79174;BME280;68599;49.142;9.124;2023-04-23T01:34:58;99105.67;;;12.36;79.43
79174;BME280;68599;49.142;9.124;2023-04-23T01:37:25;99102.60;;;12.36;79.07
79174;BME280;68599;49.142;9.124;2023-04-23T01:39:51;99108.23;;;12.35;79.53
79174;BME280;68599;49.142;9.124;2023-04-23T01:42:18;99103.32;;;12.36;79.29
79174;BME280;68599;49.142;9.124;2023-04-23T01:44:45;99107.02;;;12.39;78.60
79174;BME280;68599;49.142;9.124;2023-04-23T01:47:12;99104.23;;;12.41;79.00
79174;BME280;68599;49.142;9.124;2023-04-23T01:49:39;99102.95;;;12.42;78.83
79174;BME280;68599;49.142;9.124;2023-04-23T01:52:06;99107.02;;;12.44;79.24
79174;BME280;68599;49.142;9.124;2023-04-23T01:54:32;99110.29;;;12.49;78.84
79174;BME280;68599;49.142;9.124;2023-04-23T01:56:59;99114.82;;;12.54;78.39
79174;BME280;68599;49.142;9.124;2023-04-23T01:59:26;99113.55;;;12.49;78.51
79174;BME280;68599;49.142;9.124;2023-04-23T02:01:52;99116.27;;;12.44;78.58
79174;BME280;68599;49.142;9.124;2023-04-23T02:04:19;99116.41;;;12.45;78.65
79174;BME280;68599;49.142;9.124;2023-04-23T02:06:48;99115.16;;;12.44;78.38
79174;BME280;68599;49.142;9.124;2023-04-23T02:09:15;99119.27;;;12.45;78.32
79174;BME280;68599;49.142;9.124;2023-04-23T02:11:42;99127.90;;;12.52;78.16
79174;BME280;68599;49.142;9.124;2023-04-23T02:14:09;99128.63;;;12.52;78.60
79174;BME280;68599;49.142;9.124;2023-04-23T02:16:36;99131.79;;;12.55;78.11
79174;BME280;68599;49.142;9.124;2023-04-23T02:19:02;99132.08;;;12.57;77.89
79174;BME280;68599;49.142;9.124;2023-04-23T02:21:30;99135.81;;;12.54;78.48
79174;BME280;68599;49.142;9.124;2023-04-23T02:23:56;99139.20;;;12.55;78.14
79174;BME280;68599;49.142;9.124;2023-04-23T02:26:23;99137.59;;;12.49;77.93
79174;BME280;68599;49.142;9.124;2023-04-23T02:28:50;99135.11;;;12.48;77.95
79174;BME280;68599;49.142;9.124;2023-04-23T02:31:17;99136.35;;;12.43;78.15
79174;BME280;68599;49.142;9.124;2023-04-23T02:33:46;99133.66;;;12.43;78.47
79174;BME280;68599;49.142;9.124;2023-04-23T02:36:13;99131.84;;;12.43;78.26
79174;BME280;68599;49.142;9.124;2023-04-23T02:38:39;99133.13;;;12.42;78.72
79174;BME280;68599;49.142;9.124;2023-04-23T02:41:07;99133.57;;;12.45;79.04
79174;BME280;68599;49.142;9.124;2023-04-23T02:43:34;99130.91;;;12.49;78.68
79174;BME280;68599;49.142;9.124;2023-04-23T02:46:00;99128.13;;;12.51;78.23
79174;BME280;68599;49.142;9.124;2023-04-23T02:48:38;99130.95;;;12.53;78.29
79174;BME280;68599;49.142;9.124;2023-04-23T02:51:08;99138.84;;;12.55;77.77
79174;BME280;68599;49.142;9.124;2023-04-23T02:53:35;99142.58;;;12.46;78.35
79174;BME280;68599;49.142;9.124;2023-04-23T02:56:02;99141.15;;;12.45;77.66
79174;BME280;68599;49.142;9.124;2023-04-23T02:58:29;99134.45;;;12.45;77.47
79174;BME280;68599;49.142;9.124;2023-04-23T03:00:55;99139.17;;;12.45;77.29
79174;BME280;68599;49.142;9.124;2023-04-23T03:03:22;99140.70;;;12.48;77.38
79174;BME280;68599;49.142;9.124;2023-04-23T03:05:52;99136.08;;;12.51;77.30
79174;BME280;68599;49.142;9.124;2023-04-23T03:08:19;99140.42;;;12.51;77.57
79174;BME280;68599;49.142;9.124;2023-04-23T03:10:45;99140.23;;;12.51;77.67
79174;BME280;68599;49.142;9.124;2023-04-23T03:13:12;99139.58;;;12.55;77.44
79174;BME280;68599;49.142;9.124;2023-04-23T03:15:39;99138.55;;;12.58;77.47
79174;BME280;68599;49.142;9.124;2023-04-23T03:18:06;99137.11;;;12.58;77.26
79174;BME280;68599;49.142;9.124;2023-04-23T03:20:34;99135.55;;;12.56;76.88
79174;BME280;68599;49.142;9.124;2023-04-23T03:23:01;99126.73;;;12.55;76.75
79174;BME280;68599;49.142;9.124;2023-04-23T03:25:28;99126.81;;;12.52;77.17
79174;BME280;68599;49.142;9.124;2023-04-23T03:27:54;99125.96;;;12.51;76.85
79174;BME280;68599;49.142;9.124;2023-04-23T03:30:21;99123.29;;;12.50;76.68
79174;BME280;68599;49.142;9.124;2023-04-23T03:32:49;99121.89;;;12.54;76.95
79174;BME280;68599;49.142;9.124;2023-04-23T03:35:16;99123.23;;;12.57;76.83
79174;BME280;68599;49.142;9.124;2023-04-23T03:37:42;99124.61;;;12.54;77.00
79174;BME280;68599;49.142;9.124;2023-04-23T03:40:09;99121.74;;;12.53;77.22
79174;BME280;68599;49.142;9.124;2023-04-23T03:42:35;99122.63;;;12.53;77.35
79174;BME280;68599;49.142;9.124;2023-04-23T03:45:03;99121.60;;;12.52;77.41
79174;BME280;68599;49.142;9.124;2023-04-23T03:47:30;99124.30;;;12.52;76.65
79174;BME280;68599;49.142;9.124;2023-04-23T03:49:56;99124.33;;;12.51;76.47
79174;BME280;68599;49.142;9.124;2023-04-23T03:52:23;99127.58;;;12.46;76.36
79174;BME280;68599;49.142;9.124;2023-04-23T03:54:50;99128.81;;;12.41;76.42
79174;BME280;68599;49.142;9.124;2023-04-23T03:57:16;99129.58;;;12.39;76.17
79174;BME280;68599;49.142;9.124;2023-04-23T03:59:43;99128.45;;;12.41;77.29
79174;BME280;68599;49.142;9.124;2023-04-23T04:02:09;99129.27;;;12.44;76.77
79174;BME280;68599;49.142;9.124;2023-04-23T04:04:36;99124.34;;;12.46;76.96
79174;BME280;68599;49.142;9.124;2023-04-23T04:07:03;99132.49;;;12.45;76.88
79174;BME280;68599;49.142;9.124;2023-04-23T04:09:32;99129.73;;;12.46;76.80
79174;BME280;68599;49.142;9.124;2023-04-23T04:11:59;99132.25;;;12.47;76.45
79174;BME280;68599;49.142;9.124;2023-04-23T04:14:26;99134.86;;;12.44;76.39
79174;BME280;68599;49.142;9.124;2023-04-23T04:16:52;99133.44;;;12.38;76.45
79174;BME280;68599;49.142;9.124;2023-04-23T04:19:19;99132.20;;;12.37;76.30
79174;BME280;68599;49.142;9.124;2023-04-23T04:21:45;99137.42;;;12.31;76.61
79174;BME280;68599;49.142;9.124;2023-04-23T04:24:13;99142.39;;;12.35;76.57
79174;BME280;68599;49.142;9.124;2023-04-23T04:26:40;99147.10;;;12.34;77.08
79174;BME280;68599;49.142;9.124;2023-04-23T04:29:07;99147.58;;;12.36;76.70
79174;BME280;68599;49.142;9.124;2023-04-23T04:31:36;99154.41;;;12.37;77.09
79174;BME280;68599;49.142;9.124;2023-04-23T04:34:02;99147.20;;;12.37;77.55
79174;BME280;68599;49.142;9.124;2023-04-23T04:36:29;99144.09;;;12.38;77.50
79174;BME280;68599;49.142;9.124;2023-04-23T04:38:55;99152.60;;;12.38;76.81
79174;BME280;68599;49.142;9.124;2023-04-23T04:41:24;99154.02;;;12.38;76.85
79174;BME280;68599;49.142;9.124;2023-04-23T04:43:51;99157.80;;;12.33;76.93
79174;BME280;68599;49.142;9.124;2023-04-23T04:46:17;99155.70;;;12.31;76.91
79174;BME280;68599;49.142;9.124;2023-04-23T04:48:47;99158.82;;;12.24;77.02
79174;BME280;68599;49.142;9.124;2023-04-23T04:51:14;99162.52;;;12.15;77.08
79174;BME280;68599;49.142;9.124;2023-04-23T04:53:41;99164.64;;;12.11;78.03
79174;BME280;68599;49.142;9.124;2023-04-23T04:56:07;99166.59;;;12.12;77.79
79174;BME280;68599;49.142;9.124;2023-04-23T04:58:34;99166.12;;;12.15;77.68
79174;BME280;68599;49.142;9.124;2023-04-23T05:01:01;99162.64;;;12.17;77.60
79174;BME280;68599;49.142;9.124;2023-04-23T05:03:27;99165.00;;;12.17;78.55
79174;BME280;68599;49.142;9.124;2023-04-23T05:05:54;99163.30;;;12.20;78.35
79174;BME280;68599;49.142;9.124;2023-04-23T05:08:21;99163.45;;;12.21;79.01
79174;BME280;68599;49.142;9.124;2023-04-23T05:10:48;99163.90;;;12.23;78.77
79174;BME280;68599;49.142;9.124;2023-04-23T05:13:19;99165.82;;;12.25;79.15
79174;BME280;68599;49.142;9.124;2023-04-23T05:15:45;99168.77;;;12.29;78.51
79174;BME280;68599;49.142;9.124;2023-04-23T05:18:12;99166.38;;;12.30;78.49
79174;BME280;68599;49.142;9.124;2023-04-23T05:20:39;99172.90;;;12.30;78.40
79174;BME280;68599;49.142;9.124;2023-04-23T05:23:06;99172.39;;;12.34;77.85
79174;BME280;68599;49.142;9.124;2023-04-23T05:25:33;99162.67;;;12.39;77.81
79174;BME280;68599;49.142;9.124;2023-04-23T05:28:01;99157.60;;;12.45;77.71
79174;BME280;68599;49.142;9.124;2023-04-23T05:30:27;99158.23;;;12.54;77.46
79174;BME280;68599;49.142;9.124;2023-04-23T05:32:54;99158.94;;;12.60;77.15
79174;BME280;68599;49.142;9.124;2023-04-23T05:35:21;99159.46;;;12.65;76.72
79174;BME280;68599;49.142;9.124;2023-04-23T05:37:47;99158.27;;;12.73;76.28
79174;BME280;68599;49.142;9.124;2023-04-23T05:40:14;99158.45;;;12.79;75.86
79174;BME280;68599;49.142;9.124;2023-04-23T05:42:41;99157.50;;;12.80;75.62
79174;BME280;68599;49.142;9.124;2023-04-23T05:45:08;99153.56;;;12.85;75.82
79174;BME280;68599;49.142;9.124;2023-04-23T05:47:35;99156.58;;;12.92;75.07
79174;BME280;68599;49.142;9.124;2023-04-23T05:50:02;99154.79;;;12.91;75.31
79174;BME280;68599;49.142;9.124;2023-04-23T05:52:28;99153.98;;;12.94;74.99
79174;BME280;68599;49.142;9.124;2023-04-23T05:54:58;99149.56;;;13.06;74.85
79174;BME280;68599;49.142;9.124;2023-04-23T05:57:25;99154.30;;;13.05;74.36
79174;BME280;68599;49.142;9.124;2023-04-23T05:59:52;99150.05;;;13.08;74.61
79174;BME280;68599;49.142;9.124;2023-04-23T06:02:18;99153.13;;;13.14;74.69
79174;BME280;68599;49.142;9.124;2023-04-23T06:04:48;99161.15;;;13.28;74.49
79174;BME280;68599;49.142;9.124;2023-04-23T06:07:15;99163.83;;;13.28;73.70
79174;BME280;68599;49.142;9.124;2023-04-23T06:09:42;99169.54;;;13.26;72.94
79174;BME280;68599;49.142;9.124;2023-04-23T06:12:09;99170.96;;;13.26;73.28
79174;BME280;68599;49.142;9.124;2023-04-23T06:14:36;99169.40;;;13.29;73.03
79174;BME280;68599;49.142;9.124;2023-04-23T06:17:02;99169.45;;;13.28;72.91
79174;BME280;68599;49.142;9.124;2023-04-23T06:19:29;99167.48;;;13.28;72.66
79174;BME280;68599;49.142;9.124;2023-04-23T06:21:55;99170.77;;;13.21;72.84
79174;BME280;68599;49.142;9.124;2023-04-23T06:24:22;99171.05;;;13.24;72.66
79174;BME280;68599;49.142;9.124;2023-04-23T06:26:48;99168.97;;;13.26;72.31
79174;BME280;68599;49.142;9.124;2023-04-23T06:29:15;99169.95;;;13.29;72.39
79174;BME280;68599;49.142;9.124;2023-04-23T06:31:42;99175.08;;;13.37;72.46
79174;BME280;68599;49.142;9.124;2023-04-23T06:34:08;99174.89;;;13.43;72.03
79174;BME280;68599;49.142;9.124;2023-04-23T06:36:35;99174.35;;;13.52;72.51
79174;BME280;68599;49.142;9.124;2023-04-23T06:39:01;99167.13;;;13.67;72.13
79174;BME280;68599;49.142;9.124;2023-04-23T06:41:28;99162.80;;;13.85;71.67
79174;BME280;68599;49.142;9.124;2023-04-23T06:43:54;99163.42;;;14.02;71.18
79174;BME280;68599;49.142;9.124;2023-04-23T06:46:21;99161.77;;;14.12;70.66
79174;BME280;68599;49.142;9.124;2023-04-23T06:48:47;99162.56;;;14.24;69.94
79174;BME280;68599;49.142;9.124;2023-04-23T06:51:14;99162.45;;;14.27;69.91
79174;BME280;68599;49.142;9.124;2023-04-23T06:53:41;99154.35;;;14.40;69.85
79174;BME280;68599;49.142;9.124;2023-04-23T06:56:08;99148.38;;;14.57;68.79
79174;BME280;68599;49.142;9.124;2023-04-23T06:58:34;99145.35;;;14.73;68.99
79174;BME280;68599;49.142;9.124;2023-04-23T07:01:01;99143.20;;;14.90;68.55
79174;BME280;68599;49.142;9.124;2023-04-23T07:03:30;99137.60;;;15.10;67.66
79174;BME280;68599;49.142;9.124;2023-04-23T07:05:57;99137.02;;;15.36;67.80
79174;BME280;68599;49.142;9.124;2023-04-23T07:08:24;99135.95;;;15.64;67.50
79174;BME280;68599;49.142;9.124;2023-04-23T07:10:50;99134.34;;;15.87;65.72
79174;BME280;68599;49.142;9.124;2023-04-23T07:13:18;99126.09;;;15.89;63.95
79174;BME280;68599;49.142;9.124;2023-04-23T07:15:45;99128.30;;;16.03;65.31
79174;BME280;68599;49.142;9.124;2023-04-23T07:18:11;99124.62;;;16.34;64.98
79174;BME280;68599;49.142;9.124;2023-04-23T07:20:38;99125.65;;;16.58;63.23
79174;BME280;68599;49.142;9.124;2023-04-23T07:23:05;99123.92;;;16.75;63.06
79174;BME280;68599;49.142;9.124;2023-04-23T07:25:32;99122.17;;;16.84;62.39
79174;BME280;68599;49.142;9.124;2023-04-23T07:27:59;99125.55;;;16.93;62.24
79174;BME280;68599;49.142;9.124;2023-04-23T07:30:26;99120.95;;;16.83;62.23
79174;BME280;68599;49.142;9.124;2023-04-23T07:32:53;99122.26;;;16.72;62.31
79174;BME280;68599;49.142;9.124;2023-04-23T07:35:21;99120.67;;;16.77;62.02
79174;BME280;68599;49.142;9.124;2023-04-23T07:37:48;99120.83;;;16.71;61.83
79174;BME280;68599;49.142;9.124;2023-04-23T07:40:22;99120.29;;;16.71;62.45
79174;BME280;68599;49.142;9.124;2023-04-23T07:42:50;99119.63;;;16.70;61.68
79174;BME280;68599;49.142;9.124;2023-04-23T07:45:17;99114.19;;;16.66;60.92
79174;BME280;68599;49.142;9.124;2023-04-23T07:47:44;99110.45;;;16.75;60.62
79174;BME280;68599;49.142;9.124;2023-04-23T07:50:14;99106.77;;;16.83;60.32
79174;BME280;68599;49.142;9.124;2023-04-23T07:52:41;99108.86;;;16.84;60.15
79174;BME280;68599;49.142;9.124;2023-04-23T07:55:08;99112.77;;;16.50;59.75
79174;BME280;68599;49.142;9.124;2023-04-23T07:57:35;99108.94;;;16.54;61.51
79174;BME280;68599;49.142;9.124;2023-04-23T08:00:03;99112.17;;;16.47;61.52
79174;BME280;68599;49.142;9.124;2023-04-23T08:02:29;99115.10;;;16.28;61.01
79174;BME280;68599;49.142;9.124;2023-04-23T08:04:56;99117.86;;;16.17;60.21
79174;BME280;68599;49.142;9.124;2023-04-23T08:07:23;99113.29;;;16.24;61.15
79174;BME280;68599;49.142;9.124;2023-04-23T08:10:12;99108.20;;;16.28;59.99
79174;BME280;68599;49.142;9.124;2023-04-23T08:12:38;99110.17;;;16.47;60.96
79174;BME280;68599;49.142;9.124;2023-04-23T08:15:05;99108.58;;;16.57;60.57
79174;BME280;68599;49.142;9.124;2023-04-23T08:17:32;99104.83;;;16.78;60.03
79174;BME280;68599;49.142;9.124;2023-04-23T08:19:59;99101.13;;;17.04;59.90
79174;BME280;68599;49.142;9.124;2023-04-23T08:22:26;99101.41;;;17.23;59.43
79174;BME280;68599;49.142;9.124;2023-04-23T08:24:52;99093.69;;;17.52;58.79
79174;BME280;68599;49.142;9.124;2023-04-23T08:27:19;99093.30;;;17.69;58.43
79174;BME280;68599;49.142;9.124;2023-04-23T08:29:46;99091.94;;;17.74;57.39
79174;BME280;68599;49.142;9.124;2023-04-23T08:32:12;99083.81;;;17.92;57.80
79174;BME280;68599;49.142;9.124;2023-04-23T08:34:39;99075.90;;;18.03;56.70
79174;BME280;68599;49.142;9.124;2023-04-23T08:37:05;99069.84;;;18.23;55.57
79174;BME280;68599;49.142;9.124;2023-04-23T08:39:41;99072.34;;;18.14;56.15
79174;BME280;68599;49.142;9.124;2023-04-23T08:42:23;99072.64;;;18.34;56.11
79174;BME280;68599;49.142;9.124;2023-04-23T08:44:52;99068.11;;;18.49;55.52
79174;BME280;68599;49.142;9.124;2023-04-23T08:47:21;99074.23;;;18.70;54.51
79174;BME280;68599;49.142;9.124;2023-04-23T08:49:52;99072.44;;;18.84;53.99
79174;BME280;68599;49.142;9.124;2023-04-23T08:52:24;99066.61;;;18.87;51.68
79174;BME280;68599;49.142;9.124;2023-04-23T08:54:52;99066.36;;;18.89;49.51
79174;BME280;68599;49.142;9.124;2023-04-23T08:57:19;99063.14;;;19.23;50.74
79174;BME280;68599;49.142;9.124;2023-04-23T08:59:46;99067.49;;;19.48;48.71
79174;BME280;68599;49.142;9.124;2023-04-23T09:02:12;99068.81;;;19.87;49.61
79174;BME280;68599;49.142;9.124;2023-04-23T09:04:41;99059.11;;;20.41;49.83
79174;BME280;68599;49.142;9.124;2023-04-23T09:07:08;99056.82;;;20.62;48.81
79174;BME280;68599;49.142;9.124;2023-04-23T09:09:38;99056.86;;;20.33;48.39
79174;BME280;68599;49.142;9.124;2023-04-23T09:12:07;99062.43;;;20.18;49.31
79174;BME280;68599;49.142;9.124;2023-04-23T09:14:34;99055.23;;;20.30;48.08
79174;BME280;68599;49.142;9.124;2023-04-23T09:17:02;99047.78;;;20.65;47.94
79174;BME280;68599;49.142;9.124;2023-04-23T09:19:29;99044.02;;;20.58;47.67
79174;BME280;68599;49.142;9.124;2023-04-23T09:21:58;99044.98;;;20.63;46.13
79174;BME280;68599;49.142;9.124;2023-04-23T09:24:27;99042.95;;;20.90;46.01
79174;BME280;68599;49.142;9.124;2023-04-23T09:26:56;99034.50;;;21.12;45.91
79174;BME280;68599;49.142;9.124;2023-04-23T09:29:24;99033.93;;;21.17;46.16
79174;BME280;68599;49.142;9.124;2023-04-23T09:31:53;99025.95;;;21.16;45.70
79174;BME280;68599;49.142;9.124;2023-04-23T09:34:22;99020.17;;;21.15;44.37
79174;BME280;68599;49.142;9.124;2023-04-23T09:36:51;99011.86;;;21.75;44.54
79174;BME280;68599;49.142;9.124;2023-04-23T09:39:22;99013.83;;;21.48;43.19
79174;BME280;68599;49.142;9.124;2023-04-23T09:41:52;99005.84;;;20.92;42.66
79174;BME280;68599;49.142;9.124;2023-04-23T09:44:20;99008.69;;;20.93;42.88
79174;BME280;68599;49.142;9.124;2023-04-23T09:46:51;99008.45;;;21.33;42.88
79174;BME280;68599;49.142;9.124;2023-04-23T09:49:18;99003.19;;;21.85;42.57
79174;BME280;68599;49.142;9.124;2023-04-23T09:51:46;98994.97;;;22.44;40.13
79174;BME280;68599;49.142;9.124;2023-04-23T09:54:16;98996.60;;;23.02;39.13
79174;BME280;68599;49.142;9.124;2023-04-23T09:56:48;98991.48;;;22.89;37.26
79174;BME280;68599;49.142;9.124;2023-04-23T09:59:22;98986.85;;;23.29;37.15
79174;BME280;68599;49.142;9.124;2023-04-23T10:02:02;98984.44;;;23.82;36.88
79174;BME280;68599;49.142;9.124;2023-04-23T10:04:29;98982.22;;;24.02;34.93
79174;BME280;68599;49.142;9.124;2023-04-23T10:07:00;98982.58;;;23.46;35.09
79174;BME280;68599;49.142;9.124;2023-04-23T10:09:45;98981.66;;;23.53;35.01
79174;BME280;68599;49.142;9.124;2023-04-23T10:12:12;98978.24;;;23.29;34.95
79174;BME280;68599;49.142;9.124;2023-04-23T10:14:59;98977.18;;;22.58;36.02
79174;BME280;68599;49.142;9.124;2023-04-23T10:17:26;98971.81;;;22.78;36.51
79174;BME280;68599;49.142;9.124;2023-04-23T10:19:54;98969.33;;;23.32;35.64
79174;BME280;68599;49.142;9.124;2023-04-23T10:22:21;98961.45;;;23.53;36.24
79174;BME280;68599;49.142;9.124;2023-04-23T10:24:52;98962.94;;;23.36;36.04
79174;BME280;68599;49.142;9.124;2023-04-23T10:27:25;98956.14;;;23.59;36.07
79174;BME280;68599;49.142;9.124;2023-04-23T10:30:12;98957.36;;;22.91;36.07
79174;BME280;68599;49.142;9.124;2023-04-23T10:32:40;98953.51;;;23.12;36.17
79174;BME280;68599;49.142;9.124;2023-04-23T10:35:08;98953.48;;;22.56;36.69
79174;BME280;68599;49.142;9.124;2023-04-23T10:37:35;98949.42;;;21.78;37.38
79174;BME280;68599;49.142;9.124;2023-04-23T10:40:06;98943.59;;;21.35;39.05
79174;BME280;68599;49.142;9.124;2023-04-23T10:42:34;98948.62;;;21.42;39.59
79174;BME280;68599;49.142;9.124;2023-04-23T10:45:10;98952.27;;;21.89;38.37
79174;BME280;68599;49.142;9.124;2023-04-23T10:47:49;98944.26;;;22.01;38.92
79174;BME280;68599;49.142;9.124;2023-04-23T10:50:29;98941.81;;;21.52;39.62
79174;BME280;68599;49.142;9.124;2023-04-23T10:53:00;98928.40;;;21.85;39.65
79174;BME280;68599;49.142;9.124;2023-04-23T10:55:31;98922.92;;;21.60;39.44
79174;BME280;68599;49.142;9.124;2023-04-23T10:58:06;98921.15;;;21.71;38.64
79174;BME280;68599;49.142;9.124;2023-04-23T11:00:44;98921.08;;;21.65;39.00
79174;BME280;68599;49.142;9.124;2023-04-23T11:03:36;98921.02;;;22.07;38.12
79174;BME280;68599;49.142;9.124;2023-04-23T11:06:18;98921.13;;;21.59;38.19
79174;BME280;68599;49.142;9.124;2023-04-23T11:08:50;98912.98;;;21.99;37.50
79174;BME280;68599;49.142;9.124;2023-04-23T11:11:24;98905.66;;;22.75;36.46
79174;BME280;68599;49.142;9.124;2023-04-23T11:14:10;98901.45;;;23.30;35.29
79174;BME280;68599;49.142;9.124;2023-04-23T11:16:39;98902.58;;;23.21;34.40
79174;BME280;68599;49.142;9.124;2023-04-23T11:19:10;98899.90;;;23.16;33.67
79174;BME280;68599;49.142;9.124;2023-04-23T11:24:36;98895.05;;;23.64;34.39
79174;BME280;68599;49.142;9.124;2023-04-23T11:27:12;98895.65;;;23.90;32.38
79174;BME280;68599;49.142;9.124;2023-04-23T11:29:39;98892.61;;;24.35;31.78
79174;BME280;68599;49.142;9.124;2023-04-23T11:32:07;98891.44;;;24.27;31.69
79174;BME280;68599;49.142;9.124;2023-04-23T11:34:39;98883.81;;;23.60;32.16
79174;BME280;68599;49.142;9.124;2023-04-23T11:37:09;98888.33;;;23.29;33.18
79174;BME280;68599;49.142;9.124;2023-04-23T11:39:37;98882.65;;;23.71;33.17
79174;BME280;68599;49.142;9.124;2023-04-23T11:42:11;98880.89;;;23.28;33.72
79174;BME280;68599;49.142;9.124;2023-04-23T11:44:39;98881.56;;;23.65;33.40
79174;BME280;68599;49.142;9.124;2023-04-23T11:47:07;98882.71;;;22.73;33.62
79174;BME280;68599;49.142;9.124;2023-04-23T11:49:35;98873.93;;;23.48;33.16
79174;BME280;68599;49.142;9.124;2023-04-23T11:52:03;98870.88;;;23.96;32.43
79174;BME280;68599;49.142;9.124;2023-04-23T11:54:30;98863.19;;;24.60;31.44
79174;BME280;68599;49.142;9.124;2023-04-23T11:56:57;98856.20;;;24.76;30.87
79174;BME280;68599;49.142;9.124;2023-04-23T11:59:25;98854.20;;;24.59;31.35
79174;BME280;68599;49.142;9.124;2023-04-23T12:01:56;98841.11;;;25.07;30.63
79174;BME280;68599;49.142;9.124;2023-04-23T12:04:26;98839.23;;;25.61;29.93
79174;BME280;68599;49.142;9.124;2023-04-23T12:06:55;98834.16;;;26.66;29.02
79174;BME280;68599;49.142;9.124;2023-04-23T12:09:24;98825.32;;;27.91;27.21
79174;BME280;68599;49.142;9.124;2023-04-23T12:11:51;98820.48;;;28.47;26.35
79174;BME280;68599;49.142;9.124;2023-04-23T12:14:22;98814.16;;;27.96;26.02
79174;BME280;68599;49.142;9.124;2023-04-23T12:16:54;98809.72;;;27.49;26.64
79174;BME280;68599;49.142;9.124;2023-04-23T12:19:26;98807.22;;;27.85;26.39
79174;BME280;68599;49.142;9.124;2023-04-23T12:24:25;98791.10;;;27.86;25.98
79174;BME280;68599;49.142;9.124;2023-04-23T12:26:53;98777.92;;;30.08;24.52
79174;BME280;68599;49.142;9.124;2023-04-23T12:29:21;98778.35;;;29.83;23.86
79174;BME280;68599;49.142;9.124;2023-04-23T12:31:49;98776.59;;;30.43;22.86
79174;BME280;68599;49.142;9.124;2023-04-23T12:34:18;98766.44;;;31.70;21.02
79174;BME280;68599;49.142;9.124;2023-04-23T12:36:51;98756.26;;;32.66;20.76
79174;BME280;68599;49.142;9.124;2023-04-23T12:39:24;98751.81;;;33.97;19.15
79174;BME280;68599;49.142;9.124;2023-04-23T12:44:23;98737.92;;;33.45;18.45
79174;BME280;68599;49.142;9.124;2023-04-23T12:46:56;98736.55;;;33.22;18.68
79174;BME280;68599;49.142;9.124;2023-04-23T12:49:27;98734.70;;;32.63;18.06
79174;BME280;68599;49.142;9.124;2023-04-23T12:51:55;98730.76;;;31.47;18.88
79174;BME280;68599;49.142;9.124;2023-04-23T12:54:34;98725.68;;;31.70;19.14
79174;BME280;68599;49.142;9.124;2023-04-23T12:57:04;98720.66;;;30.91;20.21
79174;BME280;68599;49.142;9.124;2023-04-23T12:59:31;98716.27;;;30.25;21.55
79174;BME280;68599;49.142;9.124;2023-04-23T13:01:58;98717.09;;;29.11;23.88
79174;BME280;68599;49.142;9.124;2023-04-23T13:04:31;98713.14;;;28.68;24.07
79174;BME280;68599;49.142;9.124;2023-04-23T13:06:57;98701.79;;;29.97;22.98
79174;BME280;68599;49.142;9.124;2023-04-23T13:09:24;98702.61;;;30.81;21.40
79174;BME280;68599;49.142;9.124;2023-04-23T13:11:54;98699.95;;;30.91;21.02
79174;BME280;68599;49.142;9.124;2023-04-23T13:14:20;98697.30;;;31.86;20.04